createdAt,value
2018-03-02T00:00:47.802Z,-8.00
2018-03-02T00:03:15.081Z,-8.10
2018-03-02T00:05:41.407Z,-8.10
2018-03-02T00:08:08.548Z,-8.00
2018-03-02T00:10:34.840Z,-8.00
2018-03-02T00:13:01.150Z,-8.10
2018-03-02T00:15:27.431Z,-8.10
2018-03-02T00:17:53.742Z,-8.00
2018-03-02T00:20:20.075Z,-8.10
2018-03-02T00:22:46.366Z,-8.10
2018-03-02T00:25:12.662Z,-8.10
2018-03-02T00:27:38.975Z,-8.20
2018-03-02T00:30:05.259Z,-8.10
2018-03-02T00:32:31.569Z,-8.10
2018-03-02T00:34:57.872Z,-8.10
2018-03-02T00:37:24.223Z,-8.10
2018-03-02T00:39:50.635Z,-8.10
2018-03-02T00:42:17.031Z,-8.10
2018-03-02T00:44:43.307Z,-8.20
2018-03-02T00:47:09.636Z,-8.20
2018-03-02T00:49:35.995Z,-8.30
2018-03-02T00:52:03.055Z,-8.40
2018-03-02T00:54:30.090Z,-8.40
2018-03-02T00:56:57.220Z,-8.30
2018-03-02T00:59:23.625Z,-8.40
2018-03-02T01:01:49.916Z,-8.30
2018-03-02T01:04:16.963Z,-8.40
2018-03-02T01:06:43.979Z,-8.40
2018-03-02T01:09:10.314Z,-8.30
2018-03-02T01:11:36.588Z,-8.40
2018-03-02T01:14:02.901Z,-8.40
2018-03-02T01:16:29.177Z,-8.40
2018-03-02T01:18:55.499Z,-8.50
2018-03-02T01:21:21.777Z,-8.50
2018-03-02T01:23:48.068Z,-8.50
2018-03-02T01:26:14.393Z,-8.50
2018-03-02T01:28:40.743Z,-8.50
2018-03-02T01:31:07.057Z,-8.60
2018-03-02T01:33:33.403Z,-8.60
2018-03-02T01:35:59.679Z,-8.60
2018-03-02T01:38:33.957Z,-8.60
2018-03-02T01:41:00.673Z,-8.60
2018-03-02T01:43:26.990Z,-8.60
2018-03-02T01:45:53.273Z,-8.60
2018-03-02T01:48:19.546Z,-8.60
2018-03-02T01:50:45.829Z,-8.60
2018-03-02T01:53:12.130Z,-8.60
2018-03-02T01:55:38.397Z,-8.60
2018-03-02T01:58:04.692Z,-8.70
2018-03-02T02:00:31.845Z,-8.60
2018-03-02T02:02:58.187Z,-8.60
2018-03-02T02:05:24.614Z,-8.60
2018-03-02T02:07:50.913Z,-8.60
2018-03-02T02:10:17.209Z,-8.60
2018-03-02T02:12:43.490Z,-8.60
2018-03-02T02:15:09.814Z,-8.50
2018-03-02T02:17:36.124Z,-8.60
2018-03-02T02:20:03.205Z,-8.60
2018-03-02T02:22:29.478Z,-8.60
2018-03-02T02:24:55.790Z,-8.50
2018-03-02T02:27:22.066Z,-8.50
2018-03-02T02:29:49.083Z,-8.60
2018-03-02T02:32:15.367Z,-8.60
2018-03-02T02:34:41.666Z,-8.60
2018-03-02T02:37:08.716Z,-8.50
2018-03-02T02:39:35.754Z,-8.60
2018-03-02T02:42:02.802Z,-8.50
2018-03-02T02:44:29.841Z,-8.50
2018-03-02T02:46:56.130Z,-8.50
2018-03-02T02:49:22.415Z,-8.40
2018-03-02T02:51:49.443Z,-8.50
2018-03-02T02:54:15.758Z,-8.50
2018-03-02T02:56:42.066Z,-8.40
2018-03-02T02:59:08.350Z,-8.40
2018-03-02T03:01:34.649Z,-8.30
2018-03-02T03:04:00.971Z,-8.30
2018-03-02T03:06:27.380Z,-8.20
2018-03-02T03:08:53.678Z,-8.20
2018-03-02T03:11:20.722Z,-8.30
2018-03-02T03:13:47.025Z,-8.30
2018-03-02T03:16:13.347Z,-8.30
2018-03-02T03:18:39.630Z,-8.40
2018-03-02T03:21:08.159Z,-8.20
2018-03-02T03:23:34.463Z,-8.20
2018-03-02T03:26:00.749Z,-8.10
2018-03-02T03:28:27.078Z,-8.20
2018-03-02T03:30:53.375Z,-8.10
2018-03-02T03:33:20.291Z,-8.20
2018-03-02T03:35:46.575Z,-8.20
2018-03-02T03:38:12.907Z,-8.20
2018-03-02T03:40:39.186Z,-8.20
2018-03-02T03:43:05.486Z,-8.20
2018-03-02T03:45:31.779Z,-8.20
2018-03-02T03:47:58.085Z,-8.30
2018-03-02T03:50:24.420Z,-8.40
2018-03-02T03:52:50.698Z,-8.40
2018-03-02T03:55:16.991Z,-8.40
2018-03-02T03:57:43.310Z,-8.40
2018-03-02T04:00:09.682Z,-8.40
2018-03-02T04:02:35.990Z,-8.30
2018-03-02T04:05:02.360Z,-8.30
2018-03-02T04:07:28.677Z,-8.30
2018-03-02T04:09:54.990Z,-8.40
2018-03-02T04:12:21.346Z,-8.40
2018-03-02T04:14:47.626Z,-8.30
2018-03-02T04:17:13.905Z,-8.50
2018-03-02T04:19:40.252Z,-8.50
2018-03-02T04:22:06.589Z,-8.40
2018-03-02T04:24:32.867Z,-8.40
2018-03-02T04:26:59.190Z,-8.30
2018-03-02T04:29:25.463Z,-8.30
2018-03-02T04:31:51.817Z,-8.30
2018-03-02T04:34:18.845Z,-8.20
2018-03-02T04:36:45.177Z,-8.30
2018-03-02T04:39:11.469Z,-8.30
2018-03-02T04:41:37.746Z,-8.40
2018-03-02T04:44:05.068Z,-8.40
2018-03-02T04:46:31.443Z,-8.40
2018-03-02T04:48:58.542Z,-8.40
2018-03-02T04:51:24.950Z,-8.50
2018-03-02T04:53:51.230Z,-8.40
2018-03-02T04:56:17.518Z,-8.40
2018-03-02T04:58:43.818Z,-8.40
2018-03-02T05:01:10.861Z,-8.50
2018-03-02T05:03:37.144Z,-8.30
2018-03-02T05:06:03.474Z,-8.40
2018-03-02T05:08:30.524Z,-8.50
2018-03-02T05:10:56.846Z,-8.60
2018-03-02T05:13:23.937Z,-8.60
2018-03-02T05:15:50.218Z,-8.60
2018-03-02T05:18:16.490Z,-8.60
2018-03-02T05:20:42.794Z,-8.60
2018-03-02T05:23:09.082Z,-8.60
2018-03-02T05:25:36.170Z,-8.40
2018-03-02T05:28:02.476Z,-8.50
2018-03-02T05:30:29.510Z,-8.40
2018-03-02T05:32:55.882Z,-8.40
2018-03-02T05:35:24.358Z,-8.40
2018-03-02T05:37:50.685Z,-8.40
2018-03-02T05:40:16.967Z,-8.40
2018-03-02T05:42:43.257Z,-8.10
2018-03-02T05:45:10.430Z,-8.40
2018-03-02T05:47:36.712Z,-8.40
2018-03-02T05:50:04.678Z,-8.40
2018-03-02T05:52:31.704Z,-8.40
2018-03-02T05:54:58.013Z,-8.50
2018-03-02T05:57:24.473Z,-8.40
2018-03-02T05:59:50.758Z,-8.30
2018-03-02T06:02:17.062Z,-8.30
2018-03-02T06:04:43.369Z,-8.40
2018-03-02T06:07:09.682Z,-8.40
2018-03-02T06:09:35.975Z,-8.50
2018-03-02T06:12:02.278Z,-8.30
2018-03-02T06:14:29.359Z,-8.30
2018-03-02T06:16:55.640Z,-8.30
2018-03-02T06:19:21.949Z,-8.30
2018-03-02T06:21:48.225Z,-8.10
2018-03-02T06:24:14.522Z,-8.30
2018-03-02T06:26:40.812Z,-8.30
2018-03-02T06:29:07.119Z,-8.20
2018-03-02T06:31:33.442Z,-8.20
2018-03-02T06:34:00.474Z,-8.00
2018-03-02T06:36:27.858Z,-8.00
2018-03-02T06:38:54.174Z,-7.80
2018-03-02T06:41:21.229Z,-7.80
2018-03-02T06:43:48.271Z,-7.60
2018-03-02T06:46:15.313Z,-7.60
2018-03-02T06:48:42.377Z,-7.50
2018-03-02T06:51:08.646Z,-7.50
2018-03-02T06:53:34.965Z,-7.30
2018-03-02T06:56:01.278Z,-7.40
2018-03-02T06:58:27.600Z,-7.30
2018-03-02T07:00:53.904Z,-7.20
2018-03-02T07:03:20.186Z,-7.30
2018-03-02T07:05:46.534Z,-7.30
2018-03-02T07:08:14.945Z,-7.30
2018-03-02T07:10:41.988Z,-7.30
2018-03-02T07:13:08.326Z,-7.30
2018-03-02T07:15:34.651Z,-7.30
2018-03-02T07:18:01.044Z,-7.20
2018-03-02T07:20:27.396Z,-7.20
2018-03-02T07:22:53.758Z,-7.10
2018-03-02T07:25:20.032Z,-7.20
2018-03-02T07:27:46.331Z,-7.00
2018-03-02T07:30:12.647Z,-6.90
2018-03-02T07:32:38.914Z,-6.80
2018-03-02T07:35:05.220Z,-6.70
2018-03-02T07:37:32.271Z,-6.80
2018-03-02T07:39:59.278Z,-6.90
2018-03-02T07:42:25.569Z,-6.90
2018-03-02T07:44:51.858Z,-6.80
2018-03-02T07:47:18.177Z,-6.70
2018-03-02T07:49:44.466Z,-6.60
2018-03-02T07:52:10.775Z,-6.60
2018-03-02T07:54:37.846Z,-6.40
2018-03-02T07:57:04.189Z,-6.40
2018-03-02T07:59:30.521Z,-6.30
2018-03-02T08:01:56.903Z,-6.30
2018-03-02T08:04:23.995Z,-6.20
2018-03-02T08:06:50.298Z,-6.20
2018-03-02T08:09:17.334Z,-5.70
2018-03-02T08:11:44.514Z,-5.50
2018-03-02T08:14:10.815Z,-5.50
2018-03-02T08:16:37.093Z,-5.50
2018-03-02T08:19:03.427Z,-5.50
2018-03-02T08:21:29.714Z,-5.30
2018-03-02T08:23:56.749Z,-5.10
2018-03-02T08:26:23.054Z,-5.10
2018-03-02T08:28:49.322Z,-5.00
2018-03-02T08:31:16.386Z,-4.70
2018-03-02T08:33:42.653Z,-4.70
2018-03-02T08:36:08.946Z,-4.50
2018-03-02T08:38:35.991Z,-4.40
2018-03-02T08:41:03.079Z,-4.30
2018-03-02T08:43:29.360Z,-4.30
2018-03-02T08:45:56.373Z,-4.20
2018-03-02T08:48:22.693Z,-4.20
2018-03-02T08:50:48.962Z,-4.20
2018-03-02T08:53:16.763Z,-4.30
2018-03-02T08:55:43.862Z,-4.30
2018-03-02T08:58:10.157Z,-4.30
2018-03-02T09:00:36.447Z,-4.20
2018-03-02T09:03:03.457Z,-3.50
2018-03-02T09:05:29.801Z,-3.50
2018-03-02T09:07:56.078Z,-3.40
2018-03-02T09:10:22.366Z,-3.40
2018-03-02T09:12:48.643Z,-3.30
2018-03-02T09:15:16.241Z,-3.10
2018-03-02T09:17:42.578Z,-2.90
2018-03-02T09:20:08.853Z,-2.70
2018-03-02T09:22:35.883Z,-2.50
2018-03-02T09:25:02.909Z,-2.60
2018-03-02T09:27:29.333Z,-2.60
2018-03-02T09:29:56.674Z,-2.30
2018-03-02T09:32:22.970Z,-2.40
2018-03-02T09:34:49.266Z,-2.40
2018-03-02T09:37:15.634Z,-2.30
2018-03-02T09:39:41.886Z,-2.10
2018-03-02T09:42:08.175Z,-2.00
2018-03-02T09:44:34.475Z,-2.10
2018-03-02T09:47:01.502Z,-1.60
2018-03-02T09:49:29.282Z,-1.40
2018-03-02T09:51:56.279Z,-1.30
2018-03-02T09:54:22.566Z,-1.30
2018-03-02T09:56:49.591Z,-0.90
2018-03-02T09:59:15.890Z,-0.90
2018-03-02T10:01:42.430Z,-0.90
2018-03-02T10:04:08.875Z,-1.10
2018-03-02T10:06:35.158Z,-1.00
2018-03-02T10:09:01.526Z,-0.80
2018-03-02T10:11:27.806Z,-0.80
2018-03-02T10:13:54.893Z,-0.80
2018-03-02T10:16:21.155Z,-0.80
2018-03-02T10:18:47.443Z,-0.90
2018-03-02T10:21:13.743Z,-0.70
2018-03-02T10:23:40.768Z,-0.50
2018-03-02T10:26:07.044Z,-0.60
2018-03-02T10:28:33.318Z,-0.40
2018-03-02T10:30:59.651Z,-0.20
2018-03-02T10:33:25.936Z,-0.10
2018-03-02T10:35:52.219Z,0.10
2018-03-02T10:38:19.225Z,0.20
2018-03-02T10:40:45.494Z,0.20
2018-03-02T10:43:12.506Z,0.20
2018-03-02T10:45:38.802Z,0.20
2018-03-02T10:48:05.090Z,0.30
2018-03-02T10:50:32.139Z,0.40
2018-03-02T10:52:59.191Z,0.60
2018-03-02T10:55:26.203Z,0.70
2018-03-02T10:57:52.491Z,0.70
2018-03-02T11:00:24.975Z,0.80
2018-03-02T11:02:56.279Z,0.80
2018-03-02T11:05:23.329Z,0.80
2018-03-02T11:07:50.349Z,1.00
2018-03-02T11:10:17.383Z,1.10
2018-03-02T11:12:43.687Z,1.10
2018-03-02T11:15:09.976Z,1.00
2018-03-02T11:17:36.974Z,1.10
2018-03-02T11:20:03.302Z,1.10
2018-03-02T11:22:29.591Z,1.20
2018-03-02T11:24:56.610Z,1.30
2018-03-02T11:27:22.903Z,1.30
2018-03-02T11:29:49.199Z,1.40
2018-03-02T11:32:17.218Z,1.40
2018-03-02T11:34:44.514Z,1.40
2018-03-02T11:37:11.575Z,1.60
2018-03-02T11:39:38.638Z,1.80
2018-03-02T11:42:04.928Z,1.70
2018-03-02T11:44:31.222Z,1.80
2018-03-02T11:46:57.628Z,2.10
2018-03-02T11:49:23.822Z,2.40
2018-03-02T11:51:50.865Z,2.60
2018-03-02T11:54:17.130Z,2.60
2018-03-02T11:56:43.406Z,2.70
2018-03-02T11:59:09.686Z,2.70
2018-03-02T12:01:35.955Z,2.50
2018-03-02T12:04:03.273Z,2.50
2018-03-02T12:06:29.555Z,2.80
2018-03-02T12:08:55.856Z,2.80
2018-03-02T12:11:22.201Z,2.90
2018-03-02T12:13:48.473Z,3.10
2018-03-02T12:16:15.498Z,2.80
2018-03-02T12:18:41.774Z,2.70
2018-03-02T12:21:08.064Z,3.00
2018-03-02T12:23:34.423Z,3.30
2018-03-02T12:26:00.695Z,3.40
2018-03-02T12:28:26.996Z,3.40
2018-03-02T12:30:53.269Z,3.50
2018-03-02T12:33:19.545Z,3.50
2018-03-02T12:35:46.575Z,3.60
2018-03-02T12:38:12.847Z,3.60
2018-03-02T12:40:39.135Z,3.80
2018-03-02T12:43:05.408Z,4.00
2018-03-02T12:45:31.714Z,3.90
2018-03-02T12:47:58.726Z,3.90
2018-03-02T12:50:25.261Z,3.90
2018-03-02T12:52:51.534Z,4.20
2018-03-02T12:55:18.547Z,5.10
2018-03-02T12:57:44.807Z,5.10
2018-03-02T13:00:11.827Z,5.70
2018-03-02T13:02:38.121Z,5.70
2018-03-02T13:05:04.411Z,6.10
2018-03-02T13:07:31.775Z,6.40
2018-03-02T13:09:58.786Z,6.80
2018-03-02T13:12:25.099Z,6.80
2018-03-02T13:14:51.377Z,7.40
2018-03-02T13:17:18.466Z,7.60
2018-03-02T13:19:44.754Z,7.60
2018-03-02T13:22:23.972Z,8.20
2018-03-02T13:24:51.018Z,7.40
2018-03-02T13:27:29.607Z,7.30
2018-03-02T13:29:55.899Z,7.30
2018-03-02T13:32:22.214Z,7.10
2018-03-02T13:35:01.414Z,7.60
2018-03-02T13:37:28.718Z,7.60
2018-03-02T13:40:08.024Z,8.30
2018-03-02T13:42:34.330Z,8.30
2018-03-02T13:45:00.614Z,8.10
2018-03-02T13:50:24.831Z,8.00
2018-03-02T13:52:51.114Z,8.00
2018-03-02T13:55:17.398Z,8.20
2018-03-02T14:00:35.807Z,7.40
2018-03-02T14:03:14.438Z,6.80
2018-03-02T14:05:40.719Z,6.30
2018-03-02T14:08:06.986Z,5.30
2018-03-02T14:10:33.258Z,5.10
2018-03-02T14:12:59.551Z,4.90
2018-03-02T14:15:25.823Z,4.30
2018-03-02T14:17:52.160Z,3.60
2018-03-02T14:20:18.454Z,2.50
2018-03-02T14:22:45.500Z,1.00
2018-03-02T14:25:12.535Z,0.80
2018-03-02T14:27:38.807Z,0.70
2018-03-02T14:30:05.087Z,1.00
2018-03-02T14:32:31.362Z,1.40
2018-03-02T14:34:58.685Z,2.00
2018-03-02T14:37:25.689Z,3.10
2018-03-02T14:39:51.956Z,3.10
2018-03-02T14:42:18.239Z,3.30
2018-03-02T14:44:44.521Z,3.20
2018-03-02T14:47:12.543Z,2.60
2018-03-02T14:49:38.826Z,2.50
2018-03-02T14:52:05.855Z,2.10
2018-03-02T14:54:32.874Z,2.00
2018-03-02T14:56:59.150Z,2.00
2018-03-02T14:59:26.174Z,1.60
2018-03-02T15:01:52.466Z,1.60
2018-03-02T15:04:18.770Z,1.30
2018-03-02T15:06:45.039Z,1.10
2018-03-02T15:09:11.313Z,0.90
2018-03-02T15:11:38.322Z,0.20
2018-03-02T15:14:04.598Z,0.10
2018-03-02T15:16:31.620Z,-0.10
2018-03-02T15:18:57.894Z,-0.10
2018-03-02T15:21:24.264Z,-0.20
2018-03-02T15:23:50.539Z,-0.30
2018-03-02T15:26:16.823Z,-0.40
2018-03-02T15:28:43.091Z,-0.30
2018-03-02T15:31:10.103Z,-0.60
2018-03-02T15:33:36.423Z,-0.60
2018-03-02T15:36:02.728Z,-0.60
2018-03-02T15:38:28.994Z,-0.60
2018-03-02T15:40:55.293Z,-0.70
2018-03-02T15:43:21.570Z,-0.70
2018-03-02T15:45:47.858Z,-0.60
2018-03-02T15:48:14.167Z,-0.70
2018-03-02T15:50:40.459Z,-0.60
2018-03-02T15:53:06.760Z,-0.70
2018-03-02T15:55:33.031Z,-0.80
2018-03-02T15:58:00.074Z,-0.80
2018-03-02T16:00:27.308Z,-0.90
2018-03-02T16:02:53.603Z,-1.00
2018-03-02T16:05:19.888Z,-1.10
2018-03-02T16:07:46.946Z,-1.20
2018-03-02T16:10:13.963Z,-1.20
2018-03-02T16:12:40.272Z,-1.30
2018-03-02T16:15:06.543Z,-1.40
2018-03-02T16:17:33.606Z,-1.40
2018-03-02T16:19:59.901Z,-1.50
2018-03-02T16:22:27.678Z,-1.80
2018-03-02T16:24:54.702Z,-1.90
2018-03-02T16:27:20.983Z,-2.00
2018-03-02T16:29:47.258Z,-2.00
2018-03-02T16:32:13.558Z,-1.80
2018-03-02T16:34:39.837Z,-1.90
2018-03-02T16:37:06.141Z,-1.80
2018-03-02T16:39:32.431Z,-1.80
2018-03-02T16:41:58.765Z,-1.90
2018-03-02T16:44:25.212Z,-2.00
2018-03-02T16:46:51.507Z,-2.10
2018-03-02T16:49:18.543Z,-2.10
2018-03-02T16:51:44.817Z,-2.10
2018-03-02T16:54:11.093Z,-2.00
2018-03-02T16:56:37.399Z,-2.00
2018-03-02T16:59:03.675Z,-2.00
2018-03-02T17:01:30.699Z,-1.80
2018-03-02T17:03:56.999Z,-1.80
2018-03-02T17:06:23.290Z,-1.80
2018-03-02T17:08:49.564Z,-1.80
2018-03-02T17:11:15.940Z,-1.70
2018-03-02T17:13:42.965Z,-1.70
2018-03-02T17:16:09.238Z,-1.70
2018-03-02T17:18:35.534Z,-2.00
2018-03-02T17:21:01.844Z,-2.00
2018-03-02T17:23:29.650Z,-2.00
2018-03-02T17:25:56.691Z,-2.00
2018-03-02T17:28:23.730Z,-2.00
2018-03-02T17:30:50.954Z,-1.90
2018-03-02T17:33:17.279Z,-2.00
2018-03-02T17:35:43.988Z,-1.90
2018-03-02T17:38:11.148Z,-1.80
2018-03-02T17:40:37.640Z,-1.70
2018-03-02T17:43:04.740Z,-1.70
2018-03-02T17:45:31.143Z,-1.70
2018-03-02T17:47:57.470Z,-1.70
2018-03-02T17:50:24.130Z,-1.80
2018-03-02T17:52:50.579Z,-1.70
2018-03-02T17:55:16.875Z,-1.70
2018-03-02T17:57:43.221Z,-1.70
2018-03-02T18:00:09.624Z,-1.60
2018-03-02T18:02:36.002Z,-1.60
2018-03-02T18:05:02.554Z,-1.70
2018-03-02T18:07:29.671Z,-1.60
2018-03-02T18:09:56.101Z,-1.70
2018-03-02T18:12:22.456Z,-1.50
2018-03-02T18:14:49.701Z,-1.50
2018-03-02T18:17:18.618Z,-1.60
2018-03-02T18:19:45.642Z,-1.60
2018-03-02T18:22:11.946Z,-1.60
2018-03-02T18:24:38.267Z,-1.60
2018-03-02T18:27:05.275Z,-1.70
2018-03-02T18:29:31.635Z,-1.70
2018-03-02T18:31:58.656Z,-1.70
2018-03-02T18:34:26.414Z,-1.60
2018-03-02T18:36:52.695Z,-1.60
2018-03-02T18:39:19.034Z,-1.60
2018-03-02T18:41:45.318Z,-1.60
2018-03-02T18:44:12.873Z,-1.80
2018-03-02T18:46:39.999Z,-1.80
2018-03-02T18:49:06.758Z,-1.80
2018-03-02T18:51:33.499Z,-1.90
2018-03-02T18:54:00.450Z,-2.00
2018-03-02T18:56:27.009Z,-2.00
2018-03-02T18:58:53.277Z,-1.90
2018-03-02T19:01:19.547Z,-1.90
2018-03-02T19:03:45.824Z,-2.00
2018-03-02T19:06:12.139Z,-2.00
2018-03-02T19:08:38.424Z,-2.10
2018-03-02T19:11:05.454Z,-2.00
2018-03-02T19:13:31.727Z,-2.00
2018-03-02T19:15:58.754Z,-2.00
2018-03-02T19:18:26.070Z,-2.00
2018-03-02T19:20:52.356Z,-2.00
2018-03-02T19:23:19.366Z,-2.10
2018-03-02T19:25:45.635Z,-2.10
2018-03-02T19:28:12.656Z,-1.90
2018-03-02T19:30:38.935Z,-2.00
2018-03-02T19:33:05.279Z,-2.10
2018-03-02T19:35:31.559Z,-2.00
2018-03-02T19:37:57.827Z,-1.80
2018-03-02T19:40:24.095Z,-1.70
2018-03-02T19:42:50.390Z,-1.60
2018-03-02T19:45:16.673Z,-1.60
2018-03-02T19:47:42.959Z,-1.60
2018-03-02T19:50:09.254Z,-1.50
2018-03-02T19:52:36.270Z,-1.40
2018-03-02T19:55:02.570Z,-1.50
2018-03-02T19:57:28.847Z,-1.40
2018-03-02T19:59:55.115Z,-1.40
2018-03-02T20:02:21.390Z,-1.40
2018-03-02T20:04:48.682Z,-1.50
2018-03-02T20:07:15.743Z,-1.30
2018-03-02T20:09:42.058Z,-1.30
2018-03-02T20:12:10.112Z,-1.30
2018-03-02T20:14:36.494Z,-1.30
2018-03-02T20:17:02.874Z,-1.20
2018-03-02T20:19:29.153Z,-1.30
2018-03-02T20:21:55.507Z,-1.20
2018-03-02T20:24:21.807Z,-1.20
2018-03-02T20:26:48.071Z,-1.10
2018-03-02T20:29:14.363Z,-1.10
2018-03-02T20:31:40.634Z,-1.20
2018-03-02T20:34:06.911Z,-1.20
2018-03-02T20:36:33.182Z,-1.20
2018-03-02T20:38:59.490Z,-1.20
2018-03-02T20:41:25.799Z,-1.20
2018-03-02T20:43:52.062Z,-1.10
2018-03-02T20:46:18.340Z,-1.10
2018-03-02T20:48:44.620Z,-1.10
2018-03-02T20:51:12.979Z,-1.20
2018-03-02T20:53:39.999Z,-1.20
2018-03-02T20:56:06.272Z,-1.20
2018-03-02T20:58:33.326Z,-1.30
2018-03-02T21:01:00.338Z,-1.40
2018-03-02T21:03:26.611Z,-1.40
2018-03-02T21:05:53.681Z,-1.30
2018-03-02T21:08:19.954Z,-1.30
2018-03-02T21:10:47.250Z,-1.30
2018-03-02T21:13:14.541Z,-1.30
2018-03-02T21:15:40.823Z,-1.40
2018-03-02T21:18:07.842Z,-1.40
2018-03-02T21:20:34.117Z,-1.40
2018-03-02T21:23:01.165Z,-1.40
2018-03-02T21:25:28.235Z,-1.40
2018-03-02T21:27:55.255Z,-1.50
2018-03-02T21:30:23.275Z,-1.50
2018-03-02T21:32:50.282Z,-1.40
2018-03-02T21:35:16.546Z,-1.40
2018-03-02T21:37:42.818Z,-1.30
2018-03-02T21:40:09.826Z,-1.20
2018-03-02T21:42:37.124Z,-1.30
2018-03-02T21:45:03.459Z,-1.30
2018-03-02T21:47:32.726Z,-1.20
2018-03-02T21:49:59.002Z,-1.10
2018-03-02T21:52:25.294Z,-1.10
2018-03-02T21:54:51.592Z,-1.10
2018-03-02T21:57:17.863Z,-1.10
2018-03-02T21:59:44.174Z,-1.10
2018-03-02T22:02:10.459Z,-1.20
2018-03-02T22:04:39.409Z,-1.20
2018-03-02T22:07:05.714Z,-1.30
2018-03-02T22:09:32.726Z,-1.40
2018-03-02T22:11:59.020Z,-1.40
2018-03-02T22:14:25.675Z,-1.40
2018-03-02T22:16:52.218Z,-1.40
2018-03-02T22:19:18.489Z,-1.30
2018-03-02T22:21:44.876Z,-1.10
2018-03-02T22:24:11.161Z,-1.00
2018-03-02T22:26:37.425Z,-0.90
2018-03-02T22:29:04.467Z,-0.80
2018-03-02T22:31:30.749Z,-0.80
2018-03-02T22:33:57.048Z,-0.70
2018-03-02T22:36:23.781Z,-0.70
2018-03-02T22:38:50.126Z,-0.70
2018-03-02T22:41:16.405Z,-0.70
2018-03-02T22:43:43.835Z,-0.70
2018-03-02T22:46:10.107Z,-0.70
2018-03-02T22:48:37.121Z,-0.60
2018-03-02T22:51:03.395Z,-0.60
2018-03-02T22:53:30.437Z,-0.80
2018-03-02T22:55:57.506Z,-0.80
2018-03-02T22:58:23.798Z,-0.70
2018-03-02T23:00:50.091Z,-0.70
2018-03-02T23:03:17.486Z,-0.70
2018-03-02T23:05:44.110Z,-0.60
2018-03-02T23:08:11.126Z,-0.60
2018-03-02T23:10:37.412Z,-0.70
2018-03-02T23:13:04.471Z,-0.60
2018-03-02T23:15:30.754Z,-0.60
2018-03-02T23:17:57.070Z,-0.60
2018-03-02T23:20:26.115Z,-0.60
2018-03-02T23:22:53.151Z,-0.60
2018-03-02T23:25:20.177Z,-0.60
2018-03-02T23:27:46.455Z,-0.60
2018-03-02T23:30:13.478Z,-0.60
2018-03-02T23:32:39.782Z,-0.60
2018-03-02T23:35:06.091Z,-0.70
2018-03-02T23:37:32.364Z,-0.70
2018-03-02T23:39:58.690Z,-0.70
2018-03-02T23:42:25.994Z,-0.70
2018-03-02T23:44:52.266Z,-0.60
2018-03-02T23:47:18.534Z,-0.60
2018-03-02T23:49:44.844Z,-0.50
2018-03-02T23:52:11.123Z,-0.60
2018-03-02T23:54:37.412Z,-0.60
2018-03-02T23:57:03.714Z,-0.50
2018-03-02T23:59:30.770Z,-0.80
